createdAt,value
2023-02-18T00:00:58.204Z,6.93
2023-02-18T00:05:50.114Z,6.90
2023-02-18T00:10:42.314Z,10.07
2023-02-18T00:15:38.111Z,7.37
2023-02-18T00:20:29.925Z,6.93
2023-02-18T00:25:21.917Z,7.47
2023-02-18T00:30:14.069Z,6.27
2023-02-18T00:35:06.177Z,7.53
2023-02-18T00:39:57.997Z,6.63
2023-02-18T00:44:49.842Z,7.75
2023-02-18T00:49:41.687Z,6.72
2023-02-18T00:54:33.827Z,6.88
2023-02-18T00:59:25.851Z,6.88
2023-02-18T01:04:18.152Z,6.30
2023-02-18T01:09:10.500Z,6.40
2023-02-18T01:14:03.969Z,6.28
2023-02-18T01:18:55.886Z,6.95
2023-02-18T01:23:47.811Z,6.68
2023-02-18T01:28:41.670Z,7.40
2023-02-18T01:33:33.681Z,6.20
2023-02-18T01:38:26.841Z,6.07
2023-02-18T01:43:20.398Z,6.90
2023-02-18T01:48:17.798Z,7.20
2023-02-18T01:53:09.883Z,6.78
2023-02-18T01:58:02.398Z,6.40
2023-02-18T02:02:54.535Z,8.13
2023-02-18T02:07:47.812Z,6.70
2023-02-18T02:13:01.126Z,7.85
2023-02-18T02:18:12.384Z,8.15
2023-02-18T02:23:29.431Z,6.25
2023-02-18T02:28:27.312Z,7.57
2023-02-18T02:33:37.748Z,7.07
2023-02-18T02:38:45.851Z,7.47
2023-02-18T02:44:01.416Z,6.22
2023-02-18T02:49:09.934Z,7.03
2023-02-18T02:54:29.985Z,7.00
2023-02-18T02:59:26.188Z,6.38
2023-02-18T03:04:43.914Z,7.47
2023-02-18T03:09:43.727Z,7.38
2023-02-18T03:15:00.391Z,7.22
2023-02-18T03:20:00.800Z,6.40
2023-02-18T03:24:55.157Z,6.15
2023-02-18T03:29:52.817Z,6.50
2023-02-18T03:34:49.210Z,7.03
2023-02-18T03:39:44.769Z,6.03
2023-02-18T03:44:36.716Z,6.05
2023-02-18T03:49:28.636Z,6.82
2023-02-18T03:54:20.964Z,5.37
2023-02-18T03:59:13.114Z,6.33
2023-02-18T04:04:05.647Z,6.20
2023-02-18T04:08:57.622Z,6.25
2023-02-18T04:13:49.464Z,6.50
2023-02-18T04:18:41.432Z,6.60
2023-02-18T04:23:33.445Z,6.27
2023-02-18T04:28:25.353Z,5.80
2023-02-18T04:33:17.275Z,7.35
2023-02-18T04:38:10.930Z,5.57
2023-02-18T04:43:03.516Z,5.10
2023-02-18T04:47:55.423Z,6.65
2023-02-18T04:52:47.598Z,5.35
2023-02-18T04:57:39.439Z,5.67
2023-02-18T05:02:31.276Z,5.45
2023-02-18T05:07:23.125Z,6.07
2023-02-18T05:12:15.092Z,6.20
2023-02-18T05:17:06.937Z,5.73
2023-02-18T05:21:58.778Z,5.80
2023-02-18T05:26:50.656Z,5.80
2023-02-18T05:31:42.721Z,6.07
2023-02-18T05:36:34.754Z,5.97
2023-02-18T05:41:26.534Z,6.15
2023-02-18T05:46:18.487Z,6.20
2023-02-18T05:51:10.286Z,5.70
2023-02-18T05:56:02.181Z,6.38
2023-02-18T06:00:54.015Z,5.78
2023-02-18T06:05:47.994Z,6.18
2023-02-18T06:10:40.693Z,6.13
2023-02-18T06:15:32.478Z,9.20
2023-02-18T06:20:24.362Z,7.53
2023-02-18T06:25:16.287Z,6.10
2023-02-18T06:30:08.737Z,6.95
2023-02-18T06:35:00.632Z,6.57
2023-02-18T06:39:52.487Z,6.20
2023-02-18T06:44:44.369Z,7.63
2023-02-18T06:49:36.548Z,6.43
2023-02-18T06:54:28.482Z,5.72
2023-02-18T06:59:20.301Z,5.80
2023-02-18T07:04:12.170Z,6.40
2023-02-18T07:09:04.328Z,6.18
2023-02-18T07:13:56.204Z,5.97
2023-02-18T07:18:48.020Z,5.97
2023-02-18T07:23:40.054Z,5.45
2023-02-18T07:28:31.937Z,6.07
2023-02-18T07:33:23.838Z,6.43
2023-02-18T07:38:15.623Z,7.68
2023-02-18T07:43:07.459Z,5.95
2023-02-18T07:47:59.346Z,5.72
2023-02-18T07:52:51.229Z,5.22
2023-02-18T07:57:57.446Z,5.85
2023-02-18T08:02:49.373Z,15.05
2023-02-18T08:07:41.241Z,14.80
2023-02-18T08:12:33.072Z,29.23
2023-02-18T08:17:24.938Z,16.65
2023-02-18T08:22:16.760Z,30.65
2023-02-18T08:27:08.648Z,24.73
2023-02-18T08:32:00.577Z,34.70
2023-02-18T08:36:52.480Z,36.42
2023-02-18T08:41:44.332Z,61.05
2023-02-18T08:46:37.209Z,47.10
2023-02-18T08:51:30.628Z,138.77
2023-02-18T08:56:22.937Z,185.40
2023-02-18T09:01:15.452Z,137.20
2023-02-18T09:06:08.222Z,87.38
2023-02-18T09:11:04.499Z,40.07
2023-02-18T09:16:01.185Z,52.05
2023-02-18T09:20:57.924Z,51.08
2023-02-18T09:25:49.992Z,38.15
2023-02-18T09:30:42.068Z,30.98
2023-02-18T09:35:34.061Z,43.38
2023-02-18T09:40:32.466Z,34.13
2023-02-18T09:45:24.820Z,36.50
2023-02-18T09:50:30.698Z,24.47
2023-02-18T09:55:39.452Z,58.03
2023-02-18T10:00:37.632Z,115.05
2023-02-18T10:05:31.126Z,59.40
2023-02-18T10:10:38.225Z,34.85
2023-02-18T10:15:32.223Z,32.33
2023-02-18T10:20:28.354Z,166.00
2023-02-18T10:25:23.463Z,251.52
2023-02-18T10:30:15.657Z,90.07
2023-02-18T10:35:34.755Z,78.10
2023-02-18T10:40:29.761Z,56.20
2023-02-18T10:45:32.813Z,46.00
2023-02-18T10:50:38.545Z,50.83
2023-02-18T10:55:45.205Z,45.65
2023-02-18T11:00:40.087Z,49.70
2023-02-18T11:05:35.789Z,24.02
2023-02-18T11:10:31.434Z,32.55
2023-02-18T11:15:25.691Z,30.05
2023-02-18T11:20:38.769Z,25.52
2023-02-18T11:25:36.843Z,26.88
2023-02-18T11:30:40.170Z,33.00
2023-02-18T11:40:29.376Z,25.10
2023-02-18T11:45:29.786Z,26.27
2023-02-18T11:50:22.749Z,26.10
2023-02-18T11:55:18.745Z,48.45
2023-02-18T12:00:43.306Z,136.15
2023-02-18T12:05:37.412Z,100.53
2023-02-18T12:10:36.650Z,111.13
2023-02-18T12:15:56.133Z,149.13
2023-02-18T12:21:16.178Z,267.27
2023-02-18T12:26:31.353Z,403.10
2023-02-18T12:31:42.261Z,319.25
2023-02-18T12:36:40.760Z,287.77
2023-02-18T12:42:00.864Z,51.25
2023-02-18T12:47:12.977Z,59.65
2023-02-18T12:52:32.895Z,192.00
2023-02-18T12:57:24.718Z,69.53
2023-02-18T13:02:28.641Z,61.10
2023-02-18T13:07:35.339Z,78.05
2023-02-18T13:13:01.594Z,99.95
2023-02-18T13:17:57.731Z,82.80
2023-02-18T13:22:50.462Z,80.70
2023-02-18T13:28:00.728Z,81.93
2023-02-18T13:33:04.733Z,83.95
2023-02-18T13:38:18.202Z,76.75
2023-02-18T13:43:35.862Z,69.90
2023-02-18T13:48:28.289Z,76.80
2023-02-18T13:53:22.790Z,72.78
2023-02-18T13:58:19.579Z,67.03
2023-02-18T14:03:36.028Z,64.53
2023-02-18T14:08:36.308Z,56.45
2023-02-18T14:14:00.499Z,64.00
2023-02-18T14:18:59.997Z,52.63
2023-02-18T14:23:51.972Z,65.20
2023-02-18T14:28:48.875Z,51.85
2023-02-18T14:34:05.640Z,60.58
2023-02-18T14:39:07.065Z,53.22
2023-02-18T14:44:04.886Z,58.78
2023-02-18T14:49:09.598Z,56.10
2023-02-18T14:54:06.879Z,48.28
2023-02-18T14:59:00.760Z,51.35
2023-02-18T15:03:54.706Z,42.17
2023-02-18T15:08:48.422Z,49.22
2023-02-18T15:13:45.152Z,50.10
2023-02-18T15:18:39.273Z,49.83
2023-02-18T15:23:32.259Z,46.15
2023-02-18T15:33:20.250Z,49.70
2023-02-18T15:38:20.453Z,44.47
2023-02-18T15:43:17.472Z,45.60
2023-02-18T15:48:26.320Z,44.65
2023-02-18T15:53:20.888Z,39.70
2023-02-18T15:58:15.454Z,42.25
2023-02-18T16:03:16.941Z,34.40
2023-02-18T16:08:26.959Z,34.85
2023-02-18T16:13:19.215Z,30.42
2023-02-18T16:18:23.674Z,36.37
2023-02-18T16:23:15.521Z,30.58
2023-02-18T16:28:28.065Z,38.63
2023-02-18T16:33:20.109Z,28.85
2023-02-18T16:38:21.095Z,33.75
2023-02-18T16:43:17.140Z,33.07
2023-02-18T16:48:21.514Z,37.72
2023-02-18T16:53:14.173Z,36.03
2023-02-18T16:58:06.167Z,30.45
2023-02-18T17:03:00.021Z,27.80
2023-02-18T17:07:51.882Z,26.63
2023-02-18T17:12:43.818Z,32.05
2023-02-18T17:17:35.994Z,27.58
2023-02-18T17:22:27.896Z,23.90
2023-02-18T17:27:19.896Z,25.90
2023-02-18T17:32:12.466Z,25.58
2023-02-18T17:37:04.308Z,28.75
2023-02-18T17:41:56.156Z,22.58
2023-02-18T17:46:49.764Z,24.15
2023-02-18T17:51:42.049Z,22.45
2023-02-18T17:56:35.517Z,22.37
2023-02-18T18:01:27.937Z,24.08
2023-02-18T18:06:20.922Z,21.83
2023-02-18T18:16:16.206Z,26.45
2023-02-18T18:21:26.070Z,20.85
2023-02-18T18:26:17.919Z,17.02
2023-02-18T18:31:15.258Z,22.88
2023-02-18T18:36:08.019Z,20.10
2023-02-18T18:41:00.093Z,22.15
2023-02-18T18:45:52.984Z,21.92
2023-02-18T18:50:44.844Z,23.70
2023-02-18T18:55:38.086Z,20.50
2023-02-18T19:00:32.543Z,23.95
2023-02-18T19:05:34.145Z,19.77
2023-02-18T19:10:34.356Z,19.52
2023-02-18T19:15:26.293Z,18.80
2023-02-18T19:20:21.243Z,17.20
2023-02-18T19:25:13.050Z,19.83
2023-02-18T19:30:06.798Z,21.70
2023-02-18T19:34:58.623Z,19.10
2023-02-18T19:39:51.240Z,17.25
2023-02-18T19:44:43.084Z,21.65
2023-02-18T19:49:35.066Z,20.10
2023-02-18T19:54:27.975Z,22.33
2023-02-18T20:04:11.831Z,20.00
2023-02-18T20:09:03.856Z,18.07
2023-02-18T20:13:55.746Z,17.73
2023-02-18T20:18:47.692Z,14.75
2023-02-18T20:23:39.565Z,16.90
2023-02-18T20:28:31.525Z,18.40
2023-02-18T20:33:23.347Z,17.42
2023-02-18T20:38:15.416Z,20.83
2023-02-18T20:43:07.243Z,15.43
2023-02-18T20:47:59.120Z,18.77
2023-02-18T20:52:52.482Z,17.65
2023-02-18T20:57:44.811Z,17.25
2023-02-18T21:02:36.834Z,15.70
2023-02-18T21:07:28.904Z,15.90
2023-02-18T21:12:20.866Z,18.77
2023-02-18T21:17:12.713Z,16.83
2023-02-18T21:22:04.526Z,18.58
2023-02-18T21:26:56.414Z,16.60
2023-02-18T21:31:48.350Z,18.60
2023-02-18T21:36:40.754Z,16.23
2023-02-18T21:41:34.323Z,15.25
2023-02-18T21:46:29.329Z,19.50
2023-02-18T21:51:39.703Z,19.40
2023-02-18T21:56:31.880Z,17.55
2023-02-18T22:01:26.008Z,14.60
2023-02-18T22:06:19.086Z,17.48
2023-02-18T22:11:11.198Z,16.37
2023-02-18T22:16:03.307Z,15.50
2023-02-18T22:20:55.186Z,18.27
2023-02-18T22:25:49.184Z,15.67
2023-02-18T22:30:41.180Z,15.20
2023-02-18T22:35:33.245Z,14.93
2023-02-18T22:40:25.095Z,15.63
2023-02-18T22:45:17.011Z,14.00
2023-02-18T22:50:09.082Z,16.15
2023-02-18T22:55:00.953Z,15.70
2023-02-18T22:59:52.967Z,13.30
2023-02-18T23:04:44.959Z,14.07
2023-02-18T23:09:36.861Z,13.68
2023-02-18T23:14:30.520Z,14.23
2023-02-18T23:19:23.333Z,14.30
2023-02-18T23:29:07.352Z,12.10
2023-02-18T23:34:01.212Z,11.10
2023-02-18T23:38:55.548Z,12.52
2023-02-18T23:43:48.314Z,11.13
2023-02-18T23:48:40.280Z,11.40
2023-02-18T23:53:34.300Z,13.07
2023-02-18T23:58:26.123Z,11.57
